Time;durP1;ratioP1;P1;durP2;ratioP2;P2;SDS_P1;SDS_P2;PMS_P1;PMS_P2;Temp;Humidity;BMP_temperature;BMP_pressure;BME280_temperature;BME280_humidity;BME280_pressure;Samples;Min_cycle;Max_cycle;Signal;HPM_P1;HPM_P2
2020/12/06 00:00:37;;;;;;;29.23;16.90;;;;;;;1.65;100.00;100135.41;6249015;28;20046;-76
2020/12/06 00:03:38;;;;;;;29.05;16.00;;;;;;;1.63;100.00;100121.63;6249205;28;20080;-75
2020/12/06 00:06:39;;;;;;;33.92;16.85;;;;;;;1.65;100.00;100126.78;6249040;28;20053;-75
2020/12/06 00:09:41;;;;;;;33.80;17.40;;;;;;;1.67;100.00;100125.84;6248689;28;20049;-76
2020/12/06 00:12:42;;;;;;;36.47;18.80;;;;;;;1.69;100.00;100129.25;6249462;28;20132;-75
2020/12/06 00:15:43;;;;;;;32.15;16.73;;;;;;;1.68;100.00;100116.31;6248944;28;20061;-75
2020/12/06 00:18:45;;;;;;;32.13;17.55;;;;;;;1.67;100.00;100110.31;6248544;28;20437;-75
2020/12/06 00:21:46;;;;;;;31.42;17.35;;;;;;;1.65;100.00;100130.22;6248616;28;20064;-75
2020/12/06 00:24:48;;;;;;;35.25;17.25;;;;;;;1.65;100.00;100137.16;6248765;28;20085;-75
2020/12/06 00:27:49;;;;;;;31.15;16.23;;;;;;;1.67;100.00;100154.34;6248559;28;20077;-74
2020/12/06 00:30:50;;;;;;;33.72;17.33;;;;;;;1.68;100.00;100153.47;6248306;28;20053;-75
2020/12/06 00:33:51;;;;;;;29.13;16.92;;;;;;;1.70;100.00;100158.59;6248740;28;20053;-74
2020/12/06 00:36:52;;;;;;;30.80;16.85;;;;;;;1.70;100.00;100181.91;6248203;28;20422;-75
2020/12/06 00:39:53;;;;;;;32.28;17.67;;;;;;;1.69;100.00;100199.19;6248215;28;20068;-75
2020/12/06 00:42:54;;;;;;;31.77;16.60;;;;;;;1.70;100.00;100213.84;6248483;28;20049;-74
2020/12/06 00:45:55;;;;;;;27.73;15.57;;;;;;;1.71;100.00;100189.63;6248190;28;20057;-75
2020/12/06 00:48:56;;;;;;;35.25;17.85;;;;;;;1.72;100.00;100190.47;6247960;28;20134;-74
2020/12/06 00:51:58;;;;;;;31.20;17.08;;;;;;;1.74;100.00;100188.72;6247865;28;20037;-74
2020/12/06 00:54:59;;;;;;;33.00;17.25;;;;;;;1.75;100.00;100186.06;6248214;28;20453;-75
2020/12/06 00:58:00;;;;;;;32.45;17.20;;;;;;;1.78;100.00;100177.38;6247581;28;20061;-75
2020/12/06 01:01:01;;;;;;;32.65;17.02;;;;;;;1.80;100.00;100173.00;6247513;28;20505;-75
2020/12/06 01:04:02;;;;;;;34.50;17.50;;;;;;;1.84;100.00;100173.75;6247856;28;20057;-75
2020/12/06 01:07:03;;;;;;;28.60;16.27;;;;;;;1.82;100.00;100160.00;6246695;28;20049;-75
2020/12/06 01:10:06;;;;;;;33.63;16.83;;;;;;;1.81;100.00;100153.97;6247364;28;20048;-74
2020/12/06 01:13:07;;;;;;;27.90;15.63;;;;;;;1.80;100.00;100144.50;6247663;28;20411;-74
2020/12/06 01:16:08;;;;;;;23.85;13.73;;;;;;;1.77;100.00;100140.28;6247350;28;20136;-75
2020/12/06 01:19:09;;;;;;;32.17;16.02;;;;;;;1.76;100.00;100140.28;6247345;28;20053;-75
2020/12/06 01:22:10;;;;;;;29.17;16.52;;;;;;;1.78;100.00;100141.13;6247153;28;20413;-75
2020/12/06 01:25:12;;;;;;;29.48;16.55;;;;;;;1.76;100.00;100106.63;6247463;28;20402;-75
2020/12/06 01:28:12;;;;;;;38.22;19.05;;;;;;;1.74;100.00;100096.31;6246958;28;20519;-75
2020/12/06 01:31:13;;;;;;;41.55;20.00;;;;;;;1.78;100.00;100115.22;6247026;28;20061;-75
2020/12/06 01:34:15;;;;;;;39.78;18.75;;;;;;;1.81;100.00;100130.66;6247343;28;20053;-75
2020/12/06 01:37:16;;;;;;;34.38;17.88;;;;;;;1.81;100.00;100138.41;6246943;28;20053;-74
2020/12/06 01:40:17;;;;;;;40.15;19.50;;;;;;;1.81;100.00;100166.06;6246942;28;20064;-74
2020/12/06 01:43:18;;;;;;;34.25;18.65;;;;;;;1.81;100.00;100171.25;6246957;28;20050;-75
2020/12/06 01:46:19;;;;;;;31.83;16.20;;;;;;;1.80;100.00;100167.81;6246922;28;20521;-75
2020/12/06 01:49:22;;;;;;;30.35;16.23;;;;;;;1.84;100.00;100189.31;6246618;28;20056;-75
2020/12/06 01:52:24;;;;;;;30.02;15.43;;;;;;;1.86;100.00;100190.09;6246590;28;20041;-75
2020/12/06 01:55:26;;;;;;;34.38;17.27;;;;;;;1.87;100.00;100187.50;6246826;28;20426;-74
2020/12/06 01:58:28;;;;;;;32.80;16.85;;;;;;;1.86;100.00;100185.78;6246425;28;20049;-75
2020/12/06 02:01:29;;;;;;;31.15;17.27;;;;;;;1.86;100.00;100171.97;6246628;28;20049;-74
2020/12/06 02:04:31;;;;;;;29.63;16.58;;;;;;;1.84;100.00;100161.66;6246664;28;20476;-74
2020/12/06 02:07:32;;;;;;;33.08;17.40;;;;;;;1.84;100.00;100138.34;6246331;28;20045;-74
2020/12/06 02:10:34;;;;;;;29.02;16.17;;;;;;;1.86;100.00;100138.28;6246115;28;20048;-75
2020/12/06 02:13:35;;;;;;;30.13;16.83;;;;;;;1.87;100.00;100158.16;6246806;28;20042;-75
2020/12/06 02:16:36;;;;;;;30.33;16.98;;;;;;;1.90;100.00;100160.63;6245887;28;20045;-74
2020/12/06 02:19:37;;;;;;;28.15;16.25;;;;;;;1.94;100.00;100162.25;6246150;28;20046;-74
2020/12/06 02:22:38;;;;;;;30.65;16.40;;;;;;;1.97;100.00;100164.78;6246081;28;20092;-75
2020/12/06 02:25:40;;;;;;;32.80;16.52;;;;;;;2.01;100.00;100153.44;6246408;28;20053;-75
2020/12/06 02:28:41;;;;;;;31.42;15.88;;;;;;;2.02;100.00;100152.53;6245483;28;20050;-74
2020/12/06 02:31:42;;;;;;;28.67;16.38;;;;;;;2.00;100.00;100146.56;6246284;28;20171;-74
2020/12/06 02:34:43;;;;;;;26.48;14.48;;;;;;;1.99;100.00;100144.84;6246397;28;20522;-75
2020/12/06 02:37:45;;;;;;;30.30;16.75;;;;;;;1.99;100.00;100153.47;6245882;28;20049;-74
2020/12/06 02:40:46;;;;;;;32.58;15.00;;;;;;;2.00;100.00;100142.22;6245998;28;20057;-75
2020/12/06 02:43:46;;;;;;;28.13;14.70;;;;;;;2.00;100.00;100137.03;6246107;28;20053;-74
2020/12/06 02:46:47;;;;;;;25.90;14.82;;;;;;;2.02;100.00;100134.41;6246033;28;20200;-74
2020/12/06 02:49:48;;;;;;;28.83;15.15;;;;;;;2.05;100.00;100149.88;6245800;28;20049;-74
2020/12/06 02:52:51;;;;;;;27.85;14.68;;;;;;;2.08;100.00;100152.34;6245722;28;20053;-74
2020/12/06 02:55:52;;;;;;;26.95;14.85;;;;;;;2.12;100.00;100153.13;6245746;28;20048;-75
2020/12/06 02:58:53;;;;;;;29.88;16.52;;;;;;;2.12;100.00;100143.59;6245590;28;20422;-75
2020/12/06 03:01:54;;;;;;;29.35;14.98;;;;;;;2.11;100.00;100136.72;6245997;28;20080;-75
2020/12/06 03:04:54;;;;;;;31.77;15.65;;;;;;;2.10;100.00;100155.78;6245614;28;20053;-75
2020/12/06 03:07:56;;;;;;;27.58;15.00;;;;;;;2.10;100.00;100153.19;6245657;28;20050;-78
2020/12/06 03:10:57;;;;;;;32.17;15.90;;;;;;;2.10;100.00;100153.19;6243500;28;20057;-78
2020/12/06 03:13:58;;;;;;;30.25;14.30;;;;;;;2.11;100.00;100152.28;6245695;28;20048;-78
2020/12/06 03:16:59;;;;;;;31.33;14.65;;;;;;;2.13;100.00;100131.50;6245531;28;20053;-78
2020/12/06 03:20:00;;;;;;;27.63;14.93;;;;;;;2.12;100.00;100122.88;6245377;28;20046;-78
2020/12/06 03:23:01;;;;;;;28.02;15.52;;;;;;;2.11;100.00;100125.53;6245732;28;20076;-76
2020/12/06 03:26:02;;;;;;;29.85;15.65;;;;;;;2.15;100.00;100127.13;6245837;28;20052;-78
2020/12/06 03:29:03;;;;;;;29.42;16.15;;;;;;;2.16;100.00;100126.22;6246626;28;20402;-79
2020/12/06 03:32:04;;;;;;;26.60;15.25;;;;;;;2.16;100.00;100118.44;6236215;28;20049;-78
2020/12/06 03:35:05;;;;;;;32.13;16.00;;;;;;;2.11;100.00;100121.19;6250196;28;20081;-78
2020/12/06 03:38:07;;;;;;;26.83;14.75;;;;;;;2.12;100.00;100111.66;6249785;28;20049;-78
2020/12/06 03:41:07;;;;;;;30.27;15.60;;;;;;;2.11;100.00;100107.38;6249716;28;20498;-77
2020/12/06 03:44:08;;;;;;;25.58;14.90;;;;;;;2.12;100.00;100122.03;6250010;28;20045;-78
2020/12/06 03:47:09;;;;;;;27.85;13.82;;;;;;;2.15;100.00;100124.53;6249777;28;20049;-77
2020/12/06 03:50:10;;;;;;;30.15;15.55;;;;;;;2.14;100.00;100133.22;6249006;28;20049;-78
2020/12/06 03:53:11;;;;;;;29.45;15.63;;;;;;;2.14;100.00;100128.88;6249996;28;20052;-77
2020/12/06 03:56:12;;;;;;;32.50;16.67;;;;;;;2.14;100.00;100130.63;6249391;28;20057;-77
2020/12/06 03:59:13;;;;;;;31.23;16.33;;;;;;;2.14;100.00;100126.28;6249303;28;20572;-78
2020/12/06 04:02:14;;;;;;;34.38;17.27;;;;;;;2.15;100.00;100127.13;6249518;28;20045;-76
2020/12/06 04:05:19;;;;;;;32.72;16.40;;;;;;;2.15;100.00;100121.94;6249522;28;20176;-79
2020/12/06 04:08:20;;;;;;;34.58;16.63;;;;;;;2.12;100.00;100124.63;6249016;28;20046;-77
2020/12/06 04:11:21;;;;;;;29.67;15.52;;;;;;;2.09;100.00;100111.72;6248890;28;20057;-78
2020/12/06 04:14:22;;;;;;;26.15;14.23;;;;;;;2.10;100.00;100108.28;6249429;28;20056;-78
2020/12/06 04:17:23;;;;;;;31.38;15.98;;;;;;;2.08;100.00;100110.03;6248991;28;20057;-78
2020/12/06 04:20:24;;;;;;;28.88;15.35;;;;;;;2.07;100.00;100103.16;6248752;28;20049;-77
2020/12/06 04:23:25;;;;;;;28.90;15.98;;;;;;;2.09;100.00;100098.78;6249110;28;20046;-77
2020/12/06 04:26:26;;;;;;;30.88;16.55;;;;;;;2.07;100.00;100096.25;6248652;28;20050;-77
2020/12/06 04:29:27;;;;;;;32.63;14.98;;;;;;;2.07;100.00;100088.47;6248724;28;20053;-78
2020/12/06 04:32:28;;;;;;;32.45;16.17;;;;;;;2.11;100.00;100094.41;6248767;28;20051;-76
2020/12/06 04:35:29;;;;;;;30.15;16.20;;;;;;;2.12;100.00;100106.47;6248884;28;20053;-77
2020/12/06 04:38:31;;;;;;;32.17;16.90;;;;;;;2.14;100.00;100115.91;6248318;28;20138;-77
2020/12/06 04:41:31;;;;;;;33.63;17.27;;;;;;;2.15;100.00;100124.53;6248205;28;20414;-77
2020/12/06 04:44:32;;;;;;;27.42;15.25;;;;;;;2.18;100.00;100127.91;6248440;28;20054;-78
2020/12/06 04:47:46;;;;;;;32.80;16.98;;;;;;;2.18;100.00;100122.72;6248308;28;20050;-78
2020/12/06 04:50:52;;;;;;;34.00;17.58;;;;;;;2.18;100.00;100124.44;6247536;28;20480;-77
2020/12/06 04:54:00;;;;;;;31.95;16.50;;;;;;;2.20;100.00;100120.91;6248567;28;20052;-77
2020/12/06 04:57:04;;;;;;;36.13;16.65;;;;;;;2.23;100.00;100104.44;6247845;28;20053;-77
2020/12/06 05:00:07;;;;;;;35.13;17.75;;;;;;;2.25;100.00;100089.66;6247935;28;20055;-78
2020/12/06 05:03:10;;;;;;;33.17;16.88;;;;;;;2.25;100.00;100092.25;6248034;28;20486;-78
2020/12/06 05:06:13;;;;;;;35.05;16.95;;;;;;;2.25;100.00;100089.66;6247667;28;20511;-78
2020/12/06 05:09:16;;;;;;;37.28;17.55;;;;;;;2.26;100.00;100099.97;6247721;28;20049;-78
2020/12/06 05:12:18;;;;;;;31.30;17.63;;;;;;;2.29;100.00;100110.28;6247750;28;20060;-78
2020/12/06 05:15:19;;;;;;;38.05;18.35;;;;;;;2.29;100.00;100104.25;6248149;28;20057;-78
2020/12/06 05:18:20;;;;;;;37.22;19.38;;;;;;;2.29;100.00;100107.69;6247105;28;20049;-78
2020/12/06 05:21:32;;;;;;;39.05;18.95;;;;;;;2.32;100.00;100092.91;6247591;28;20429;-78
2020/12/06 05:24:35;;;;;;;34.28;18.00;;;;;;;2.32;100.00;100088.59;6247502;28;20049;-78
2020/12/06 05:27:36;;;;;;;38.83;19.60;;;;;;;2.34;100.00;100073.00;6247465;28;20049;-78
2020/12/06 05:30:39;;;;;;;36.35;19.23;;;;;;;2.35;100.00;100062.56;6246982;28;20055;-78
2020/12/06 05:33:40;;;;;;;39.35;19.48;;;;;;;2.39;100.00;100050.38;6247600;28;20056;-78
2020/12/06 05:36:43;;;;;;;45.15;20.77;;;;;;;2.40;100.00;100065.00;6246900;28;20398;-78
2020/12/06 05:39:44;;;;;;;45.20;20.75;;;;;;;2.41;100.00;100048.59;6246965;28;20105;-78
2020/12/06 05:42:46;;;;;;;42.00;20.08;;;;;;;2.43;100.00;100044.19;6247112;28;20395;-78
2020/12/06 05:45:47;;;;;;;41.50;20.63;;;;;;;2.42;100.00;100043.34;6247362;28;20045;-78
2020/12/06 05:48:48;;;;;;;52.65;22.48;;;;;;;2.41;100.00;100039.06;6246011;28;20468;-78
2020/12/06 05:51:51;;;;;;;43.13;22.25;;;;;;;2.41;100.00;100039.06;6247030;28;20064;-78
2020/12/06 05:54:55;;;;;;;44.67;21.92;;;;;;;2.44;100.00;100043.28;6246938;28;20486;-78
2020/12/06 05:57:56;;;;;;;45.78;22.77;;;;;;;2.42;100.00;100039.91;6246741;28;20053;-78
2020/12/06 06:00:59;;;;;;;45.80;21.90;;;;;;;2.42;100.00;100042.50;6246468;28;20049;-78
2020/12/06 06:04:02;;;;;;;43.67;22.42;;;;;;;2.40;100.00;100032.16;6246866;28;20045;-78
2020/12/06 06:07:05;;;;;;;47.05;21.35;;;;;;;2.41;100.00;100031.28;6246493;28;20072;-78
2020/12/06 06:10:06;;;;;;;47.80;22.92;;;;;;;2.41;100.00;100039.06;6246613;28;20049;-78
2020/12/06 06:13:09;;;;;;;41.28;22.02;;;;;;;2.43;100.00;100033.81;6246668;28;20068;-78
2020/12/06 06:16:10;;;;;;;48.20;23.80;;;;;;;2.46;100.00;100037.16;6246151;28;20054;-78
2020/12/06 06:19:11;;;;;;;50.78;23.08;;;;;;;2.47;100.00;100033.66;6246205;28;20045;-78
2020/12/06 06:22:15;;;;;;;47.75;23.02;;;;;;;2.48;100.00;100037.94;6246602;28;20052;-78
2020/12/06 06:25:17;;;;;;;46.17;22.73;;;;;;;2.44;100.00;100038.09;6246751;28;20445;-78
2020/12/06 06:28:19;;;;;;;53.75;24.45;;;;;;;2.43;100.00;100031.22;6246228;28;20056;-77
2020/12/06 06:31:21;;;;;;;49.88;23.98;;;;;;;2.44;100.00;100035.50;6245908;28;20429;-78
2020/12/06 06:34:24;;;;;;;48.83;23.88;;;;;;;2.43;100.00;100026.88;6246429;28;20445;-77
2020/12/06 06:37:29;;;;;;;57.72;24.35;;;;;;;2.43;100.00;100026.88;6245943;28;20049;-78
2020/12/06 06:40:32;;;;;;;58.05;24.83;;;;;;;2.46;100.00;100029.38;6245906;28;20049;-78
2020/12/06 06:43:34;;;;;;;45.72;23.70;;;;;;;2.50;100.00;100038.78;6246201;28;20049;-78
2020/12/06 06:46:36;;;;;;;50.78;25.08;;;;;;;2.48;100.00;100032.78;6246074;28;20054;-78
2020/12/06 06:49:50;;;;;;;53.05;23.33;;;;;;;2.49;100.00;100024.09;6245843;28;20490;-78
2020/12/06 06:52:56;;;;;;;49.58;23.30;;;;;;;2.50;100.00;100025.81;6246407;28;20050;-77
2020/12/06 06:55:59;;;;;;;45.47;24.00;;;;;;;2.47;100.00;100031.06;6245881;28;20052;-78
2020/12/06 06:59:03;;;;;;;49.10;23.48;;;;;;;2.50;100.00;100024.97;6245855;28;20053;-78
2020/12/06 07:02:05;;;;;;;55.30;24.98;;;;;;;2.49;100.00;100018.06;6246001;28;20053;-78
2020/12/06 07:05:08;;;;;;;50.45;24.00;;;;;;;2.51;100.00;100017.13;6249584;28;20041;-78
2020/12/06 07:08:11;;;;;;;52.97;24.15;;;;;;;2.52;100.00;100005.84;6250525;28;20125;-75
2020/12/06 07:11:16;;;;;;;49.58;25.15;;;;;;;2.51;100.00;100001.56;6250470;28;20053;-78
2020/12/06 07:14:17;;;;;;;48.65;23.75;;;;;;;2.50;100.00;100015.44;6251136;28;20049;-78
2020/12/06 07:17:22;;;;;;;45.88;23.90;;;;;;;2.50;100.00;100006.81;6250098;28;20053;-78
2020/12/06 07:20:25;;;;;;;52.70;24.98;;;;;;;2.51;100.00;99998.97;6250234;28;20076;-78
2020/12/06 07:23:26;;;;;;;48.42;24.17;;;;;;;2.50;100.00;100006.81;6250367;28;20045;-78
2020/12/06 07:26:28;;;;;;;48.78;24.48;;;;;;;2.49;100.00;100013.72;6250562;28;20409;-78
2020/12/06 07:29:29;;;;;;;56.38;24.70;;;;;;;2.47;100.00;99999.97;6249927;28;20480;-78
2020/12/06 07:32:30;;;;;;;53.78;25.27;;;;;;;2.50;100.00;100001.63;6250071;28;20054;-79
2020/12/06 07:35:30;;;;;;;58.75;25.77;;;;;;;2.49;100.00;100003.34;6250029;28;20076;-78
2020/12/06 07:38:35;;;;;;;53.47;26.00;;;;;;;2.50;100.00;100020.63;6249695;28;20068;-78
2020/12/06 07:41:48;;;;;;;56.42;26.70;;;;;;;2.54;100.00;100019.63;6249707;28;20430;-77
2020/12/06 07:44:50;;;;;;;49.63;24.80;;;;;;;2.56;100.00;100027.34;6250205;28;20056;-77
2020/12/06 07:47:51;;;;;;;50.53;24.80;;;;;;;2.57;100.00;100031.63;6248941;28;20072;-77
2020/12/06 07:50:52;;;;;;;51.47;25.45;;;;;;;2.58;100.00;100027.28;6249742;28;20049;-77
2020/12/06 07:53:53;;;;;;;49.45;25.42;;;;;;;2.56;100.00;100023.91;6249593;28;20052;-77
2020/12/06 07:56:57;;;;;;;55.53;27.40;;;;;;;2.51;100.00;100019.72;6249283;28;20045;-79
2020/12/06 07:59:59;;;;;;;55.90;25.63;;;;;;;2.51;100.00;100006.75;6249175;28;20060;-79
2020/12/06 08:03:01;;;;;;;52.05;24.40;;;;;;;2.54;100.00;100009.25;6248766;28;20045;-79
2020/12/06 08:06:04;;;;;;;55.67;24.48;;;;;;;2.56;100.00;100016.97;6248996;28;20056;-75
2020/12/06 08:09:05;;;;;;;45.58;23.75;;;;;;;2.59;100.00;100013.41;6248998;28;20072;-76
2020/12/06 08:12:10;;;;;;;50.90;23.60;;;;;;;2.59;100.00;99996.13;6249256;28;20050;-76
2020/12/06 08:15:11;;;;;;;56.28;24.67;;;;;;;2.61;100.00;99993.47;6248653;28;20052;-76
2020/12/06 08:18:14;;;;;;;52.00;24.17;;;;;;;2.63;100.00;99981.28;6248962;28;20045;-74
2020/12/06 08:21:14;;;;;;;50.95;25.35;;;;;;;2.61;100.00;99978.75;6248592;28;20049;-72
2020/12/06 08:24:20;;;;;;;57.53;25.27;;;;;;;2.62;100.00;99964.88;6248689;28;20498;-75
2020/12/06 08:27:22;;;;;;;62.13;27.55;;;;;;;2.63;100.00;99957.94;6248263;28;20050;-74
2020/12/06 08:30:25;;;;;;;59.55;27.40;;;;;;;2.64;100.00;99970.03;6247517;28;20541;-75
2020/12/06 08:33:27;;;;;;;57.42;26.02;;;;;;;2.66;100.00;99969.06;6248689;28;20407;-74
2020/12/06 08:36:28;;;;;;;62.50;28.48;;;;;;;2.69;100.00;99968.13;6248484;28;20045;-75
2020/12/06 08:39:33;;;;;;;61.90;28.25;;;;;;;2.73;100.00;99964.56;6248243;28;20049;-75
2020/12/06 08:42:34;;;;;;;63.03;29.10;;;;;;;2.75;100.00;99960.97;6248455;28;20045;-75
2020/12/06 08:45:35;;;;;;;58.80;26.58;;;;;;;2.75;100.00;99934.19;6248111;28;20045;-74
2020/12/06 08:48:36;;;;;;;58.47;28.55;;;;;;;2.79;100.00;99944.41;6247702;28;20399;-74
2020/12/06 08:51:37;;;;;;;53.92;26.42;;;;;;;2.78;100.00;99941.88;6248400;28;20053;-74
2020/12/06 08:54:38;;;;;;;64.38;28.58;;;;;;;2.73;100.00;99936.00;6248132;28;20060;-74
2020/12/06 08:57:40;;;;;;;56.58;26.92;;;;;;;2.76;100.00;99939.31;6248075;28;20053;-78
2020/12/06 09:00:41;;;;;;;69.35;31.90;;;;;;;2.77;100.00;99947.94;6247328;28;20057;-78
2020/12/06 09:03:42;;;;;;;67.13;29.55;;;;;;;2.80;100.00;99950.44;6258258;28;20037;-78
2020/12/06 09:06:43;;;;;;;63.15;30.27;;;;;;;2.76;100.00;99956.63;6247790;28;20084;-79
2020/12/06 09:09:44;;;;;;;69.63;29.77;;;;;;;2.79;100.00;99964.31;6246817;28;20052;-78
2020/12/06 09:12:45;;;;;;;56.15;25.88;;;;;;;2.81;100.00;99978.09;6247760;28;20046;-78
2020/12/06 09:15:46;;;;;;;62.47;29.15;;;;;;;2.82;100.00;99974.63;6239882;28;20060;-78
2020/12/06 09:18:47;;;;;;;68.38;31.55;;;;;;;2.86;100.00;99965.81;6252502;28;20041;-78
2020/12/06 09:21:48;;;;;;;58.53;29.95;;;;;;;2.85;100.00;99956.31;6268080;28;20521;-78
2020/12/06 09:24:49;;;;;;;64.45;30.15;;;;;;;2.84;100.00;99957.22;6247429;28;20049;-77
2020/12/06 09:27:50;;;;;;;67.05;30.58;;;;;;;2.86;100.00;99959.75;6246315;28;20136;-78
2020/12/06 09:30:51;;;;;;;66.72;29.80;;;;;;;2.87;100.00;99951.94;6247096;28;20486;-78
2020/12/06 09:33:53;;;;;;;63.05;28.88;;;;;;;2.85;100.00;99951.13;6247232;28;20048;-76
2020/12/06 09:36:54;;;;;;;56.33;27.50;;;;;;;2.88;100.00;99977.00;6246929;28;20521;-79
2020/12/06 09:39:55;;;;;;;61.28;26.73;;;;;;;2.88;100.00;99976.16;6246847;28;20049;-79
2020/12/06 09:42:57;;;;;;;62.30;27.00;;;;;;;2.93;100.00;99963.84;6247020;28;20045;-78
2020/12/06 09:45:57;;;;;;;65.72;29.15;;;;;;;2.94;100.00;99961.19;6267957;22;20057;-75
2020/12/06 09:48:58;;;;;;;59.78;28.00;;;;;;;2.94;100.00;99965.53;6235884;28;20069;-75
2020/12/06 09:51:59;;;;;;;63.33;29.15;;;;;;;2.95;100.00;99968.09;6226722;28;20128;-76
2020/12/06 09:55:00;;;;;;;65.00;28.35;;;;;;;2.98;100.00;99959.34;6233305;28;20048;-75
2020/12/06 09:58:02;;;;;;;59.45;28.35;;;;;;;2.98;100.00;99956.75;6246477;28;20064;-75
2020/12/06 10:01:03;;;;;;;63.10;29.52;;;;;;;3.02;100.00;99943.63;6246229;28;20425;-76
2020/12/06 10:04:04;;;;;;;70.78;30.05;;;;;;;3.01;100.00;99938.50;6246351;28;20042;-76
2020/12/06 10:07:05;;;;;;;63.00;28.30;;;;;;;2.99;100.00;99943.72;6246378;28;20053;-75
2020/12/06 10:10:06;;;;;;;65.82;29.15;;;;;;;2.97;100.00;99952.47;6246103;28;20049;-75
2020/12/06 10:13:08;;;;;;;62.22;28.80;;;;;;;2.99;100.00;99943.72;6245979;28;20053;-75
2020/12/06 10:16:09;;;;;;;67.55;28.13;;;;;;;3.02;100.00;99947.97;6246039;28;20115;-75
2020/12/06 10:19:10;;;;;;;62.42;27.88;;;;;;;3.01;100.00;99946.28;6246219;28;20057;-75
2020/12/06 10:22:11;;;;;;;58.33;26.80;;;;;;;3.02;100.00;99937.59;6245822;28;20057;-75
2020/12/06 10:25:11;;;;;;;59.30;29.08;;;;;;;3.05;100.00;99937.47;6237637;28;20103;-75
2020/12/06 10:28:13;;;;;;;59.92;28.13;;;;;;;3.04;100.00;99926.25;6244560;28;20520;-75
2020/12/06 10:31:17;;;;;;;58.22;28.65;;;;;;;3.05;100.00;99907.19;6237215;28;20048;-74
2020/12/06 10:34:19;;;;;;;59.20;30.33;;;;;;;3.08;100.00;99906.22;6246087;28;20418;-74
2020/12/06 10:37:20;;;;;;;66.03;28.95;;;;;;;3.10;100.00;99903.56;6238014;28;20073;-75
2020/12/06 10:40:21;;;;;;;65.28;29.10;;;;;;;3.10;100.00;99907.00;6249853;28;20056;-74
2020/12/06 10:43:22;;;;;;;67.47;30.63;;;;;;;3.09;100.00;99896.66;6244385;28;20074;-73
2020/12/06 10:46:25;;;;;;;64.57;31.00;;;;;;;3.11;100.00;99889.69;6226047;28;20521;-74
2020/12/06 10:49:26;;;;;;;66.75;29.50;;;;;;;3.13;100.00;99909.47;6240933;28;20060;-74
2020/12/06 10:52:27;;;;;;;64.03;28.83;;;;;;;3.18;100.00;99924.88;6237986;28;20049;-71
2020/12/06 10:55:28;;;;;;;60.75;30.35;;;;;;;3.18;100.00;99914.50;6250594;28;20432;-77
2020/12/06 10:58:29;;;;;;;61.38;28.25;;;;;;;3.20;100.00;99910.97;6250557;28;20049;-76
2020/12/06 11:01:31;;;;;;;61.20;28.02;;;;;;;3.23;100.00;99892.69;6250277;28;20056;-76
2020/12/06 11:04:32;;;;;;;64.78;29.67;;;;;;;3.21;100.00;99885.84;6242189;28;20045;-75
2020/12/06 11:07:33;;;;;;;61.45;27.17;;;;;;;3.21;100.00;99872.88;6250350;28;20056;-75
2020/12/06 11:10:34;;;;;;;59.75;28.67;;;;;;;3.19;100.00;99872.94;6236082;28;20064;-75
2020/12/06 11:13:35;;;;;;;63.78;28.85;;;;;;;3.20;100.00;99872.03;6240896;28;20045;-75
2020/12/06 11:16:36;;;;;;;62.95;28.80;;;;;;;3.20;100.00;99865.97;6236563;28;20053;-74
2020/12/06 11:19:37;;;;;;;60.50;28.23;;;;;;;3.23;100.00;99860.69;6233206;28;20525;-74
2020/12/06 11:22:38;;;;;;;69.93;30.00;;;;;;;3.26;100.00;99850.16;6235860;28;20046;-74
2020/12/06 11:25:41;;;;;;;66.20;29.92;;;;;;;3.29;100.00;99830.13;6243479;28;20053;-75
2020/12/06 11:28:45;;;;;;;63.35;29.40;;;;;;;3.31;100.00;99828.31;6232830;28;20046;-74
2020/12/06 11:31:46;;;;;;;67.18;30.08;;;;;;;3.34;100.00;99819.56;6250038;28;20187;-74
2020/12/06 11:34:47;;;;;;;68.57;31.23;;;;;;;3.38;100.00;99815.09;6250133;28;20494;-75
2020/12/06 11:37:48;;;;;;;67.45;30.65;;;;;;;3.37;100.00;99818.63;6249515;28;20052;-74
2020/12/06 11:40:49;;;;;;;66.68;30.92;;;;;;;3.39;100.00;99811.59;6249640;28;20056;-74
2020/12/06 11:43:51;;;;;;;65.82;30.10;;;;;;;3.35;100.00;99807.44;6248949;28;20124;-75
2020/12/06 11:46:52;;;;;;;62.85;29.60;;;;;;;3.36;100.00;99815.19;6248714;28;20053;-74
2020/12/06 11:49:53;;;;;;;64.65;28.70;;;;;;;3.37;100.00;99790.06;6247635;28;20191;-75
2020/12/06 11:52:54;;;;;;;67.57;28.95;;;;;;;3.36;100.00;99798.72;6249683;28;20413;-74
2020/12/06 11:55:54;;;;;;;64.88;29.30;;;;;;;3.33;100.00;99784.13;6243372;28;20143;-74
2020/12/06 11:58:56;;;;;;;63.13;28.23;;;;;;;3.35;100.00;99786.66;6241935;28;20138;-74
2020/12/06 12:01:57;;;;;;;59.33;27.60;;;;;;;3.40;100.00;99788.16;6224957;28;20050;-74
2020/12/06 12:04:58;;;;;;;73.00;30.17;;;;;;;3.43;100.00;99795.84;6224565;28;20430;-74
2020/12/06 12:07:59;;;;;;;66.22;29.90;;;;;;;3.37;100.00;99785.69;6224502;28;20061;-74
2020/12/06 12:11:00;;;;;;;61.22;27.50;;;;;;;3.38;100.00;99787.38;6227001;28;20049;-75
2020/12/06 12:14:01;;;;;;;61.20;28.83;;;;;;;3.39;100.00;99786.47;6249249;28;20421;-75
2020/12/06 12:17:02;;;;;;;61.35;27.42;;;;;;;3.42;100.00;99786.38;6248668;28;20077;-74
2020/12/06 12:20:05;;;;;;;62.05;29.20;;;;;;;3.41;100.00;99774.28;6248381;28;20132;-74
2020/12/06 12:23:06;;;;;;;57.45;27.00;;;;;;;3.44;100.00;99778.50;6242352;28;20056;-75
2020/12/06 12:26:07;;;;;;;60.72;27.75;;;;;;;3.46;100.00;99771.50;6235040;28;20054;-77
2020/12/06 12:29:08;;;;;;;59.72;28.02;;;;;;;3.46;100.00;99772.34;6235327;28;20140;-74
2020/12/06 12:32:09;;;;;;;89.10;42.28;;;;;;;3.45;100.00;99783.66;6233534;28;20045;-76
2020/12/06 12:35:10;;;;;;;254.80;85.40;;;;;;;3.45;100.00;99775.88;6235733;28;20077;-74
2020/12/06 12:38:11;;;;;;;233.35;83.65;;;;;;;3.49;100.00;99768.78;6225795;28;20056;-77
2020/12/06 12:41:14;;;;;;;132.63;52.13;;;;;;;3.51;100.00;99777.38;6232350;28;20120;-74
2020/12/06 12:44:16;;;;;;;123.22;59.40;;;;;;;3.53;100.00;99775.53;6248240;28;20052;-77
2020/12/06 12:47:17;;;;;;;109.47;55.58;;;;;;;3.52;100.00;99779.03;6247919;28;20053;-77
2020/12/06 12:50:17;;;;;;;85.15;40.15;;;;;;;3.54;100.00;99790.22;6247898;28;20494;-76
2020/12/06 12:53:18;;;;;;;75.80;35.50;;;;;;;3.54;100.00;99806.66;6247449;28;20050;-77
2020/12/06 12:56:19;;;;;;;76.40;34.17;;;;;;;3.55;100.00;99800.56;6247862;28;20458;-74
2020/12/06 12:59:21;;;;;;;72.00;31.90;;;;;;;3.55;100.00;99797.97;6246009;28;20053;-77
2020/12/06 13:02:22;;;;;;;57.60;27.95;;;;;;;3.55;100.00;99799.72;6245262;28;20056;-74
2020/12/06 13:05:23;;;;;;;62.58;30.73;;;;;;;3.54;100.00;99791.09;6247696;28;20045;-74
2020/12/06 13:08:24;;;;;;;73.05;34.63;;;;;;;3.54;100.00;99783.28;6247704;28;20049;-76
2020/12/06 13:11:25;;;;;;;68.35;33.60;;;;;;;3.54;100.00;99778.09;6247337;28;20064;-77
2020/12/06 13:14:28;;;;;;;74.38;35.47;;;;;;;3.55;100.00;99800.56;6244844;28;20073;-77
2020/12/06 13:17:29;;;;;;;67.95;32.67;;;;;;;3.58;100.00;99796.13;6246866;28;20049;-74
2020/12/06 13:20:30;;;;;;;64.53;31.30;;;;;;;3.56;100.00;99798.81;6243447;28;20409;-75
2020/12/06 13:23:31;;;;;;;61.47;29.05;;;;;;;3.54;100.00;99801.47;6247391;28;20136;-75
2020/12/06 13:26:32;;;;;;;68.82;32.47;;;;;;;3.55;100.00;99786.72;6247169;28;20053;-75
2020/12/06 13:29:33;;;;;;;58.55;28.25;;;;;;;3.53;100.00;99778.13;6246825;28;20045;-74
2020/12/06 13:32:34;;;;;;;63.80;29.60;;;;;;;3.52;100.00;99781.66;6237945;28;20045;-78
2020/12/06 13:35:35;;;;;;;63.97;30.85;;;;;;;3.52;100.00;99779.03;6235466;28;20045;-73
2020/12/06 13:38:36;;;;;;;65.45;30.45;;;;;;;3.53;100.00;99775.53;6224919;28;20491;-74
2020/12/06 13:41:37;;;;;;;69.97;32.45;;;;;;;3.53;100.00;99786.75;6232219;28;20077;-75
2020/12/06 13:44:38;;;;;;;72.53;35.67;;;;;;;3.52;100.00;99779.88;6222336;28;20054;-74
2020/12/06 13:47:39;;;;;;;64.75;30.80;;;;;;;3.54;100.00;99782.41;6244902;28;20049;-75